Terminal Aerodrome Forecast
Issued by NWS

Home | Current Version | Previous Version | Graphics & Text | Print | Product List | Glossary On
Versions: 1 2 3 4 5 6 7 8 9 10 11 12 13 14 15 16 17 18 19 20 21 22 23 24 25 26 27 28 29 30 31 32
302
FTUS43 KABR 251744 CCA
TAFATY
TAF COR
KATY 251744Z 2518/2618 11009KT P6SM OVC006
     FM252000 11010KT P6SM OVC012
     FM252200 10010KT P6SM SKC
     FM260400 10007KT 3SM BR BKN003
     FM260700 09004KT 1/4SM FG OVC001
     FM261300 06005KT 1SM BR OVC003
     FM261600 05006KT P6SM OVC008=

USA.gov is the U.S. government's official web portal to all federal, state and local government web resources and services.